createdAt,value
2023-04-16T00:10:38.809Z,8.29
2023-04-16T00:30:39.580Z,8.29
2023-04-16T00:50:39.584Z,8.29
2023-04-16T01:10:39.570Z,8.29
2023-04-16T01:30:39.563Z,8.29
2023-04-16T01:50:39.564Z,8.29
2023-04-16T02:10:39.544Z,8.28
2023-04-16T02:30:39.536Z,8.28
2023-04-16T02:50:38.781Z,8.28
2023-04-16T03:10:39.522Z,8.27
2023-04-16T03:30:39.526Z,8.27
2023-04-16T03:50:38.764Z,8.26
2023-04-16T04:10:39.513Z,8.25
2023-04-16T04:30:39.514Z,8.24
2023-04-16T04:50:39.375Z,8.24
2023-04-16T05:10:39.359Z,8.23
2023-04-16T05:30:39.565Z,8.22
2023-04-16T05:50:39.488Z,8.21
2023-04-16T06:10:39.488Z,8.21
2023-04-16T06:50:39.496Z,8.2
2023-04-16T07:10:39.473Z,8.19
2023-04-16T07:30:39.478Z,8.19
2023-04-16T08:30:39.314Z,8.19
2023-04-16T08:50:38.313Z,8.19
2023-04-16T09:10:39.435Z,8.18
2023-04-16T09:50:39.441Z,8.18
2023-04-16T10:10:39.448Z,8.18
2023-04-16T10:30:38.925Z,8.18
2023-04-16T11:10:39.385Z,8.18
2023-04-16T11:30:39.403Z,8.18
2023-04-16T12:10:39.433Z,8.18
2023-04-16T12:30:38.866Z,8.19
2023-04-16T12:50:39.342Z,8.19
2023-04-16T13:10:39.366Z,8.19
2023-04-16T13:30:39.358Z,8.2
2023-04-16T13:50:39.339Z,8.21
2023-04-16T14:10:39.344Z,8.23
2023-04-16T14:30:39.327Z,8.25
2023-04-16T14:50:39.311Z,8.27
2023-04-16T15:10:38.790Z,8.28
2023-04-16T15:30:39.316Z,8.29
2023-04-16T15:50:39.285Z,8.29
2023-04-16T16:10:39.292Z,8.3
2023-04-16T16:30:39.287Z,8.33
2023-04-16T16:50:38.537Z,8.35
2023-04-16T17:10:38.737Z,8.38
2023-04-16T17:50:39.699Z,8.4
2023-04-16T18:10:39.245Z,8.41
2023-04-16T18:30:40.316Z,8.44
2023-04-16T18:50:39.082Z,8.46
2023-04-16T19:10:39.263Z,8.49
2023-04-16T19:30:39.194Z,8.5
2023-04-16T19:50:39.208Z,8.5
2023-04-16T20:10:39.198Z,8.51
2023-04-16T20:50:39.184Z,8.55
2023-04-16T21:10:39.160Z,8.57
2023-04-16T21:30:39.153Z,8.59
2023-04-16T21:50:39.028Z,8.6
2023-04-16T22:10:39.145Z,8.6
2023-04-16T22:30:39.140Z,8.6
2023-04-16T22:50:39.130Z,8.61
2023-04-16T23:10:38.977Z,8.61
2023-04-16T23:30:39.141Z,8.61
2023-04-16T23:50:39.106Z,8.62
